AirNav   Pilot Hours Calculator
 
 1317 users online  

CL31 Caltrans District 7 Heliport
Los Angeles, California, USA

GOING TO LOS ANGELES?


FAA INFORMATION EFFECTIVE 28 FEBRUARY 2019

Location

FAA Identifier: CL31
Lat/Long: 34-03-05.1000N / 118-14-34.3700W
34-03.085000N / 118-14.572833W
34.0514167 / -118.2428806
(estimated)
Elevation: 484 ft. / 148 m (estimated)
Variation: 14E (1985)
Time zone: UTC -8 (UTC -7 during Daylight Saving Time)
Zip code: 90012

Heliport Operations

Heliport use: Private use. Permission required prior to landing
Activation date: 10/1984
Control tower: no
ARTCC: LOS ANGELES CENTER
FSS: HAWTHORNE FLIGHT SERVICE STATION
Attendance: UNATNDD
Segmented circle: no

Heliport Communications

WX ASOS at HHR (9 nm SW): PHONE 310-973-8930
WX AWOS-3PT at CPM (10 nm S): 127.150 (310-631-4958)
WX ASOS at LAX (10 nm SW): PHONE 310-568-1486
WX AWOS-3PT at EMT (11 nm E): 118.75 ((626) 444-1107)
WX ASOS at SMO (11 nm W): PHONE 310-392-6453
WX ASOS at BUR (11 nm NW): PHONE 818-841-1384
WX ASOS at LGB (15 nm S): PHONE 562-424-0572
WX AWOS-3PT at WHP (15 nm NW): 132.1 (818-899-9820)
WX ASOS at VNY (16 nm NW): PHONE 818-904-9213
WX ASOS at FUL (17 nm SE): PHONE 714-870-1372

Nearby radio navigation aids

VOR radial/distance  VOR name  Freq  Var
SMOr062/10.9SANTA MONICA VOR/DME110.8015E
LAXr038/11.8LOS ANGELES VORTAC113.6015E
VNYr115/16.1VAN NUYS VOR/DME113.1015E
SLIr315/18.6SEAL BEACH VORTAC115.7015E
POMr251/22.7POMONA VORTAC110.4015E
ELBr297/34.0EL TORO VOR/DME117.2014E
PMDr179/35.9PALMDALE VORTAC114.5015E
PDZr268/36.4PARADISE VORTAC112.2015E
FIMr105/36.6FILLMORE VORTAC112.5015E
RALr264/(39.9)RIVERSIDE VOR112.4014E

 
NDB name  Hdg/Dist  Freq  Var  ID
EL MONTE243/10.835915EEMT . -- -

Heliport Services

Oil available: VFR, PRIVATE USE ONLY.

Runway Information

Helipad H1

Dimensions: 74 x 66 ft. / 23 x 20 m
Surface: concrete
Operational restrictions: ROOF TOP HELIPAD.
Latitude: 34-03.085000N
Longitude: 118-14.572833W
Elevation: 484.0 ft.
Traffic pattern: leftleft

Heliport Ownership and Management from official FAA records

Ownership: Publicly-owned
Owner: CALIFORNIA DEPT OF TRANSPORTATION
100 SOUTH MAIN ST
LOS ANGELES, CA 90012
Phone 213-897-3656
Manager: SYLVESTER WILSON
100 SOUTH MAIN ST
LOS ANGELES, CA 90012
Phone 213-897-3991
ADDNL CTC - MARCUS ATKINS - 213-897-0089

Instrument Procedures

There are no published instrument procedures at CL31.

Some nearby airports with instrument procedures:

KHHR - Jack Northrop Field/Hawthorne Municipal Airport (9 nm SW)
KLAX - Los Angeles International Airport (10 nm SW)
KEMT - San Gabriel Valley Airport (11 nm E)
KSMO - Santa Monica Municipal Airport (11 nm W)
KBUR - Bob Hope Airport (11 nm NW)
KLGB - Long Beach Airport (Daugherty Field) (15 nm S)
KWHP - Whiteman Airport (15 nm NW)
KVNY - Van Nuys Airport (16 nm NW)
KTOA - Zamperini Field Airport (16 nm S)
KFUL - Fullerton Municipal Airport (17 nm SE)
 
Loc | Ops | Rwys | IFR | FBO | Links
Com | Nav | Svcs | Stats | Notes
Area around CL31 (Caltrans District 7 Heliport)
 
Road maps at: MapQuest Bing Google
 
Aerial photo
No photo
 
Sectional chart

 
Airport distance calculator
Flying to Caltrans District 7 Heliport? Find the distance to fly.

From to CL31

Sunrise and sunset
Times for 18-Mar-2019
 Local
(UTC-7)
 Zulu
(UTC)
Morning civil twilight06:3513:35
Sunrise07:0014:00
Sunset19:0202:02
Evening civil twilight19:2702:27

Current date and time
Zulu (UTC)  18-Mar-2019 21:10:16
Local (UTC-7)  18-Mar-2019 14:10:16
 
METAR
KCQT 182047Z AUTO VRB03KT 10SM CLR 24/11 A2995 RMK AO2 SLP139 T02440106 58012 $
KHHR 
9nm SW 
182053Z 28007KT 1 1/4SM HZ CLR 22/10 A2996 RMK AO2 SLP145 T02220100 58012
KLAX 
10nm SW 
182053Z 27011KT 10SM FEW010 FEW045 20/12 A2997 RMK AO2 SLP148 T02000122 58009
KSMO 
11nm W 
182051Z 23008KT 200V260 10SM CLR 21/10 A2997 RMK AO2 SLP147 T02060100 58010
KBUR 
11nm NW 
182053Z 17007KT 10SM CLR 26/06 A2995 RMK AO2 SLP130 T02560061 58017
KEMT 
11nm E 
182045Z 21007KT 10SM CLR 26/08 A2995
KWHP 
15nm NW 
182050Z 13007KT 10SM SKC 25/03 A2999
KLGB 
15nm S 
182053Z 21007KT 10SM CLR 22/07 A2996 RMK AO2 SLP146 T02170072 58012
KVNY 
16nm NW 
182051Z 15009KT 10SM CLR 26/07 A2994 RMK AO2 SLP132 T02610067 58017
KTOA 
16nm S 
182048Z 27010KT 10SM SKC 23/09 A2996
TAF
KLAX 
10nm SW 
181731Z 1818/1924 09007KT P6SM FEW010 FM181900 26012KT P6SM SKC FM190400 VRB03KT P6SM SKC FM190900 12004KT 1SM BR OVC004 FM191600 22003KT P6SM SCT005 BKN200 FM192000 26012KT P6SM SCT008 BKN200
KSMO 
11nm W 
181731Z 1818/1918 VRB03KT P6SM SKC FM182100 24008KT P6SM SKC FM190300 VRB03KT P6SM SKC FM191000 14004KT 2SM BR BKN004 FM191600 19004KT 3SM BR BKN005
KBUR 
11nm NW 
181731Z 1818/1918 VRB03KT P6SM SKC FM182000 16009KT P6SM SKC FM190300 VRB03KT P6SM SCT200 FM191600 14005KT P6SM BKN200
KLGB 
15nm S 
181731Z 1818/1918 VRB03KT P6SM SKC FM181900 18008KT P6SM SKC FM182300 29010KT P6SM SKC FM190400 VRB03KT P6SM SKC FM190800 VRB03KT 2SM BR BKN004 FM191100 VRB03KT 1SM BR OVC003 FM191600 17005KT 3SM BR OVC006
KVNY 
16nm NW 
181731Z 1818/1918 VRB03KT P6SM SKC FM182000 15007KT P6SM SKC FM190300 VRB03KT P6SM SCT200 FM191600 12005KT P6SM BKN200
NOTAMs
Click for the latest NOTAMs
NOTAMs are issued by the DoD/FAA and will open in a separate window not controlled by AirNav.

 

 
 

Would you like to see your business listed on this page?

 If your business provides an interesting product or service to pilots, flight crews, aircraft, or users of the Caltrans District 7 Heliport, you should consider listing it here.  To start the listing process, click on the button below
 
Add a business
 

Other Pages about Caltrans District 7 Heliport

Update a link
 
Copyright © AirNav, LLC. All rights reserved. Privacy Policy  Contact